sensor_id;sensor_type;location;lat;lon;timestamp;P1;durP1;ratioP1;P2;durP2;ratioP2
29662;SDS011;16578;53.266;7.920;2023-07-02T00:00:01;4.67;;;2.77;;
29662;SDS011;16578;53.266;7.920;2023-07-02T00:02:30;5.45;;;2.83;;
29662;SDS011;16578;53.266;7.920;2023-07-02T00:04:55;5.88;;;2.33;;
29662;SDS011;16578;53.266;7.920;2023-07-02T00:07:21;6.38;;;3.00;;
29662;SDS011;16578;53.266;7.920;2023-07-02T00:09:46;4.93;;;2.72;;
29662;SDS011;16578;53.266;7.920;2023-07-02T00:12:12;4.85;;;3.10;;
29662;SDS011;16578;53.266;7.920;2023-07-02T00:14:38;3.20;;;2.47;;
29662;SDS011;16578;53.266;7.920;2023-07-02T00:17:04;5.65;;;3.10;;
29662;SDS011;16578;53.266;7.920;2023-07-02T00:19:29;5.53;;;2.75;;
29662;SDS011;16578;53.266;7.920;2023-07-02T00:21:55;4.72;;;2.65;;
29662;SDS011;16578;53.266;7.920;2023-07-02T00:24:21;4.93;;;2.47;;
29662;SDS011;16578;53.266;7.920;2023-07-02T00:26:46;6.75;;;3.10;;
29662;SDS011;16578;53.266;7.920;2023-07-02T00:29:12;5.32;;;3.10;;
29662;SDS011;16578;53.266;7.920;2023-07-02T00:31:38;3.95;;;2.92;;
29662;SDS011;16578;53.266;7.920;2023-07-02T00:34:04;5.57;;;2.88;;
29662;SDS011;16578;53.266;7.920;2023-07-02T00:36:30;3.53;;;2.72;;
29662;SDS011;16578;53.266;7.920;2023-07-02T00:38:56;6.32;;;3.47;;
29662;SDS011;16578;53.266;7.920;2023-07-02T00:41:22;3.97;;;3.13;;
29662;SDS011;16578;53.266;7.920;2023-07-02T00:43:48;5.10;;;3.33;;
29662;SDS011;16578;53.266;7.920;2023-07-02T00:46:14;8.45;;;3.83;;
29662;SDS011;16578;53.266;7.920;2023-07-02T00:48:47;6.80;;;3.53;;
29662;SDS011;16578;53.266;7.920;2023-07-02T00:51:17;5.57;;;3.80;;
29662;SDS011;16578;53.266;7.920;2023-07-02T00:53:45;7.43;;;3.60;;
29662;SDS011;16578;53.266;7.920;2023-07-02T00:56:13;7.47;;;4.18;;
29662;SDS011;16578;53.266;7.920;2023-07-02T00:58:40;6.85;;;3.90;;
29662;SDS011;16578;53.266;7.920;2023-07-02T01:01:12;13.73;;;3.67;;
29662;SDS011;16578;53.266;7.920;2023-07-02T01:03:56;8.55;;;4.53;;
29662;SDS011;16578;53.266;7.920;2023-07-02T01:06:27;6.38;;;3.97;;
29662;SDS011;16578;53.266;7.920;2023-07-02T01:09:01;6.57;;;4.35;;
29662;SDS011;16578;53.266;7.920;2023-07-02T01:11:29;8.27;;;3.85;;
29662;SDS011;16578;53.266;7.920;2023-07-02T01:14:02;9.20;;;3.90;;
29662;SDS011;16578;53.266;7.920;2023-07-02T01:16:41;7.25;;;4.40;;
29662;SDS011;16578;53.266;7.920;2023-07-02T01:21:36;7.78;;;4.18;;
29662;SDS011;16578;53.266;7.920;2023-07-02T01:24:02;6.88;;;4.30;;
29662;SDS011;16578;53.266;7.920;2023-07-02T01:26:29;9.60;;;4.90;;
29662;SDS011;16578;53.266;7.920;2023-07-02T01:28:56;9.50;;;4.70;;
29662;SDS011;16578;53.266;7.920;2023-07-02T01:31:21;11.43;;;4.85;;
29662;SDS011;16578;53.266;7.920;2023-07-02T01:33:50;8.05;;;4.88;;
29662;SDS011;16578;53.266;7.920;2023-07-02T01:36:16;9.55;;;4.63;;
29662;SDS011;16578;53.266;7.920;2023-07-02T01:38:41;11.88;;;5.40;;
29662;SDS011;16578;53.266;7.920;2023-07-02T01:41:07;7.25;;;4.80;;
29662;SDS011;16578;53.266;7.920;2023-07-02T01:43:32;9.55;;;5.60;;
29662;SDS011;16578;53.266;7.920;2023-07-02T01:45:58;12.00;;;5.15;;
29662;SDS011;16578;53.266;7.920;2023-07-02T01:48:24;8.90;;;5.63;;
29662;SDS011;16578;53.266;7.920;2023-07-02T01:50:50;10.27;;;5.88;;
29662;SDS011;16578;53.266;7.920;2023-07-02T01:53:15;11.05;;;5.85;;
29662;SDS011;16578;53.266;7.920;2023-07-02T01:55:41;7.45;;;5.15;;
29662;SDS011;16578;53.266;7.920;2023-07-02T01:58:06;10.10;;;5.72;;
29662;SDS011;16578;53.266;7.920;2023-07-02T02:00:32;10.98;;;5.75;;
29662;SDS011;16578;53.266;7.920;2023-07-02T02:02:57;8.35;;;5.60;;
29662;SDS011;16578;53.266;7.920;2023-07-02T02:05:23;12.75;;;6.70;;
29662;SDS011;16578;53.266;7.920;2023-07-02T02:07:49;10.77;;;6.28;;
29662;SDS011;16578;53.266;7.920;2023-07-02T02:10:14;13.35;;;6.80;;
29662;SDS011;16578;53.266;7.920;2023-07-02T02:12:40;10.93;;;6.25;;
29662;SDS011;16578;53.266;7.920;2023-07-02T02:15:05;12.25;;;5.93;;
29662;SDS011;16578;53.266;7.920;2023-07-02T02:17:31;11.93;;;6.88;;
29662;SDS011;16578;53.266;7.920;2023-07-02T02:19:57;13.27;;;7.20;;
29662;SDS011;16578;53.266;7.920;2023-07-02T02:22:22;12.07;;;6.47;;
29662;SDS011;16578;53.266;7.920;2023-07-02T02:24:48;12.23;;;6.45;;
29662;SDS011;16578;53.266;7.920;2023-07-02T02:27:13;14.38;;;7.28;;
29662;SDS011;16578;53.266;7.920;2023-07-02T02:29:39;14.15;;;7.38;;
29662;SDS011;16578;53.266;7.920;2023-07-02T02:32:05;10.68;;;6.78;;
29662;SDS011;16578;53.266;7.920;2023-07-02T02:34:30;16.55;;;7.90;;
29662;SDS011;16578;53.266;7.920;2023-07-02T02:36:56;15.80;;;7.45;;
29662;SDS011;16578;53.266;7.920;2023-07-02T02:39:21;14.77;;;7.72;;
29662;SDS011;16578;53.266;7.920;2023-07-02T02:41:47;12.77;;;7.35;;
29662;SDS011;16578;53.266;7.920;2023-07-02T02:44:12;17.05;;;8.13;;
29662;SDS011;16578;53.266;7.920;2023-07-02T02:46:38;13.13;;;7.65;;
29662;SDS011;16578;53.266;7.920;2023-07-02T02:49:03;14.85;;;7.55;;
29662;SDS011;16578;53.266;7.920;2023-07-02T02:51:29;15.65;;;8.13;;
29662;SDS011;16578;53.266;7.920;2023-07-02T02:53:55;17.00;;;8.73;;
29662;SDS011;16578;53.266;7.920;2023-07-02T02:56:20;15.23;;;8.07;;
29662;SDS011;16578;53.266;7.920;2023-07-02T02:58:46;14.85;;;8.13;;
29662;SDS011;16578;53.266;7.920;2023-07-02T03:01:11;18.13;;;9.02;;
29662;SDS011;16578;53.266;7.920;2023-07-02T03:03:40;16.60;;;8.45;;
29662;SDS011;16578;53.266;7.920;2023-07-02T03:06:09;18.70;;;8.45;;
29662;SDS011;16578;53.266;7.920;2023-07-02T03:08:36;19.67;;;7.85;;
29662;SDS011;16578;53.266;7.920;2023-07-02T03:11:01;20.30;;;8.75;;
29662;SDS011;16578;53.266;7.920;2023-07-02T03:13:27;14.95;;;7.82;;
29662;SDS011;16578;53.266;7.920;2023-07-02T03:15:52;19.00;;;8.77;;
29662;SDS011;16578;53.266;7.920;2023-07-02T03:18:18;18.33;;;9.57;;
29662;SDS011;16578;53.266;7.920;2023-07-02T03:20:44;16.48;;;8.73;;
29662;SDS011;16578;53.266;7.920;2023-07-02T03:23:09;17.92;;;8.85;;
29662;SDS011;16578;53.266;7.920;2023-07-02T03:25:35;15.80;;;8.05;;
29662;SDS011;16578;53.266;7.920;2023-07-02T03:28:00;17.83;;;8.82;;
29662;SDS011;16578;53.266;7.920;2023-07-02T03:30:26;14.73;;;8.38;;
29662;SDS011;16578;53.266;7.920;2023-07-02T03:32:51;17.65;;;9.25;;
29662;SDS011;16578;53.266;7.920;2023-07-02T03:35:17;17.20;;;8.85;;
29662;SDS011;16578;53.266;7.920;2023-07-02T03:37:42;16.52;;;8.43;;
29662;SDS011;16578;53.266;7.920;2023-07-02T03:40:08;17.35;;;8.63;;
29662;SDS011;16578;53.266;7.920;2023-07-02T03:42:34;18.42;;;8.77;;
29662;SDS011;16578;53.266;7.920;2023-07-02T03:45:00;15.40;;;8.45;;
29662;SDS011;16578;53.266;7.920;2023-07-02T03:47:25;14.57;;;8.63;;
29662;SDS011;16578;53.266;7.920;2023-07-02T03:49:51;18.58;;;8.95;;
29662;SDS011;16578;53.266;7.920;2023-07-02T03:52:16;18.27;;;8.52;;
29662;SDS011;16578;53.266;7.920;2023-07-02T03:54:42;15.02;;;8.63;;
29662;SDS011;16578;53.266;7.920;2023-07-02T03:57:07;18.88;;;8.90;;
29662;SDS011;16578;53.266;7.920;2023-07-02T03:59:33;15.90;;;8.52;;
29662;SDS011;16578;53.266;7.920;2023-07-02T04:01:59;14.48;;;8.98;;
29662;SDS011;16578;53.266;7.920;2023-07-02T04:04:25;17.98;;;8.75;;
29662;SDS011;16578;53.266;7.920;2023-07-02T04:06:51;19.92;;;9.07;;
29662;SDS011;16578;53.266;7.920;2023-07-02T04:09:16;20.45;;;8.75;;
29662;SDS011;16578;53.266;7.920;2023-07-02T04:11:43;18.38;;;8.88;;
29662;SDS011;16578;53.266;7.920;2023-07-02T04:14:09;25.63;;;9.90;;
29662;SDS011;16578;53.266;7.920;2023-07-02T04:16:34;18.67;;;9.30;;
29662;SDS011;16578;53.266;7.920;2023-07-02T04:19:00;17.98;;;9.05;;
29662;SDS011;16578;53.266;7.920;2023-07-02T04:21:25;22.15;;;9.75;;
29662;SDS011;16578;53.266;7.920;2023-07-02T04:23:51;16.58;;;9.07;;
29662;SDS011;16578;53.266;7.920;2023-07-02T04:26:17;22.20;;;9.55;;
29662;SDS011;16578;53.266;7.920;2023-07-02T04:28:43;21.73;;;9.48;;
29662;SDS011;16578;53.266;7.920;2023-07-02T04:31:08;19.00;;;9.27;;
29662;SDS011;16578;53.266;7.920;2023-07-02T04:33:34;19.38;;;8.98;;
29662;SDS011;16578;53.266;7.920;2023-07-02T04:36:01;19.77;;;9.02;;
29662;SDS011;16578;53.266;7.920;2023-07-02T04:38:30;18.13;;;9.23;;
29662;SDS011;16578;53.266;7.920;2023-07-02T04:40:55;16.05;;;9.32;;
29662;SDS011;16578;53.266;7.920;2023-07-02T04:43:29;19.15;;;9.55;;
29662;SDS011;16578;53.266;7.920;2023-07-02T04:48:24;18.35;;;9.15;;
29662;SDS011;16578;53.266;7.920;2023-07-02T04:50:49;20.40;;;8.82;;
29662;SDS011;16578;53.266;7.920;2023-07-02T04:53:15;17.25;;;8.95;;
29662;SDS011;16578;53.266;7.920;2023-07-02T04:55:41;20.10;;;10.23;;
29662;SDS011;16578;53.266;7.920;2023-07-02T04:58:07;20.10;;;10.00;;
29662;SDS011;16578;53.266;7.920;2023-07-02T05:00:32;20.40;;;9.93;;
29662;SDS011;16578;53.266;7.920;2023-07-02T05:02:58;24.20;;;11.00;;
29662;SDS011;16578;53.266;7.920;2023-07-02T05:05:23;21.48;;;10.02;;
29662;SDS011;16578;53.266;7.920;2023-07-02T05:07:49;23.77;;;9.52;;
29662;SDS011;16578;53.266;7.920;2023-07-02T05:10:14;21.10;;;9.57;;
29662;SDS011;16578;53.266;7.920;2023-07-02T05:12:40;20.88;;;10.10;;
29662;SDS011;16578;53.266;7.920;2023-07-02T05:15:06;19.58;;;9.63;;
29662;SDS011;16578;53.266;7.920;2023-07-02T05:17:32;21.10;;;10.50;;
29662;SDS011;16578;53.266;7.920;2023-07-02T05:19:59;18.63;;;9.23;;
29662;SDS011;16578;53.266;7.920;2023-07-02T05:22:26;25.73;;;10.18;;
29662;SDS011;16578;53.266;7.920;2023-07-02T05:24:51;20.75;;;10.15;;
29662;SDS011;16578;53.266;7.920;2023-07-02T05:27:17;18.48;;;9.23;;
29662;SDS011;16578;53.266;7.920;2023-07-02T05:29:43;19.50;;;10.15;;
29662;SDS011;16578;53.266;7.920;2023-07-02T05:32:08;18.90;;;9.65;;
29662;SDS011;16578;53.266;7.920;2023-07-02T05:34:34;20.13;;;10.38;;
29662;SDS011;16578;53.266;7.920;2023-07-02T05:36:59;25.30;;;10.13;;
29662;SDS011;16578;53.266;7.920;2023-07-02T05:39:25;18.45;;;9.23;;
29662;SDS011;16578;53.266;7.920;2023-07-02T05:41:51;24.10;;;9.73;;
29662;SDS011;16578;53.266;7.920;2023-07-02T05:44:16;18.92;;;8.73;;
29662;SDS011;16578;53.266;7.920;2023-07-02T05:46:42;19.90;;;9.35;;
29662;SDS011;16578;53.266;7.920;2023-07-02T05:49:07;19.00;;;9.25;;
29662;SDS011;16578;53.266;7.920;2023-07-02T05:51:33;20.00;;;9.57;;
29662;SDS011;16578;53.266;7.920;2023-07-02T05:53:58;19.17;;;9.43;;
29662;SDS011;16578;53.266;7.920;2023-07-02T05:56:24;18.20;;;9.27;;
29662;SDS011;16578;53.266;7.920;2023-07-02T05:58:49;19.60;;;9.77;;
29662;SDS011;16578;53.266;7.920;2023-07-02T06:01:15;16.52;;;8.63;;
29662;SDS011;16578;53.266;7.920;2023-07-02T06:03:41;16.98;;;8.95;;
29662;SDS011;16578;53.266;7.920;2023-07-02T06:06:08;31.17;;;8.73;;
29662;SDS011;16578;53.266;7.920;2023-07-02T06:08:34;19.33;;;8.70;;
29662;SDS011;16578;53.266;7.920;2023-07-02T06:10:59;18.73;;;9.15;;
29662;SDS011;16578;53.266;7.920;2023-07-02T06:13:25;20.95;;;8.68;;
29662;SDS011;16578;53.266;7.920;2023-07-02T06:15:50;17.35;;;8.25;;
29662;SDS011;16578;53.266;7.920;2023-07-02T06:18:16;21.75;;;9.63;;
29662;SDS011;16578;53.266;7.920;2023-07-02T06:20:42;17.90;;;8.93;;
29662;SDS011;16578;53.266;7.920;2023-07-02T06:23:08;18.88;;;9.05;;
29662;SDS011;16578;53.266;7.920;2023-07-02T06:25:33;21.08;;;9.10;;
29662;SDS011;16578;53.266;7.920;2023-07-02T06:27:59;17.88;;;8.68;;
29662;SDS011;16578;53.266;7.920;2023-07-02T06:30:25;15.32;;;8.50;;
29662;SDS011;16578;53.266;7.920;2023-07-02T06:32:51;23.85;;;9.73;;
29662;SDS011;16578;53.266;7.920;2023-07-02T06:35:17;19.92;;;8.80;;
29662;SDS011;16578;53.266;7.920;2023-07-02T06:37:43;14.40;;;7.88;;
29662;SDS011;16578;53.266;7.920;2023-07-02T06:40:08;17.98;;;8.57;;
29662;SDS011;16578;53.266;7.920;2023-07-02T06:42:34;19.17;;;8.88;;
29662;SDS011;16578;53.266;7.920;2023-07-02T06:45:01;17.98;;;8.25;;
29662;SDS011;16578;53.266;7.920;2023-07-02T06:47:27;15.93;;;7.65;;
29662;SDS011;16578;53.266;7.920;2023-07-02T06:49:52;14.07;;;7.80;;
29662;SDS011;16578;53.266;7.920;2023-07-02T06:52:18;13.77;;;7.68;;
29662;SDS011;16578;53.266;7.920;2023-07-02T06:54:44;14.43;;;7.65;;
29662;SDS011;16578;53.266;7.920;2023-07-02T06:57:09;14.88;;;8.00;;
29662;SDS011;16578;53.266;7.920;2023-07-02T06:59:35;17.02;;;7.22;;
29662;SDS011;16578;53.266;7.920;2023-07-02T07:02:01;16.90;;;7.57;;
29662;SDS011;16578;53.266;7.920;2023-07-02T07:04:27;19.77;;;7.88;;
29662;SDS011;16578;53.266;7.920;2023-07-02T07:06:53;18.15;;;7.65;;
29662;SDS011;16578;53.266;7.920;2023-07-02T07:09:20;16.58;;;7.82;;
29662;SDS011;16578;53.266;7.920;2023-07-02T07:11:46;21.58;;;7.38;;
29662;SDS011;16578;53.266;7.920;2023-07-02T07:14:12;18.50;;;8.15;;
29662;SDS011;16578;53.266;7.920;2023-07-02T07:16:37;16.98;;;6.82;;
29662;SDS011;16578;53.266;7.920;2023-07-02T07:19:03;12.73;;;7.15;;
29662;SDS011;16578;53.266;7.920;2023-07-02T07:21:28;16.88;;;6.68;;
29662;SDS011;16578;53.266;7.920;2023-07-02T07:23:54;15.15;;;7.10;;
29662;SDS011;16578;53.266;7.920;2023-07-02T07:26:19;15.30;;;6.70;;
29662;SDS011;16578;53.266;7.920;2023-07-02T07:28:45;13.73;;;6.53;;
29662;SDS011;16578;53.266;7.920;2023-07-02T07:31:10;15.93;;;7.43;;
29662;SDS011;16578;53.266;7.920;2023-07-02T07:33:36;14.13;;;6.65;;
29662;SDS011;16578;53.266;7.920;2023-07-02T07:36:01;13.48;;;6.30;;
29662;SDS011;16578;53.266;7.920;2023-07-02T07:38:27;14.63;;;6.07;;
29662;SDS011;16578;53.266;7.920;2023-07-02T07:40:52;13.15;;;5.97;;
29662;SDS011;16578;53.266;7.920;2023-07-02T07:43:18;15.23;;;6.78;;
29662;SDS011;16578;53.266;7.920;2023-07-02T07:45:44;15.60;;;7.13;;
29662;SDS011;16578;53.266;7.920;2023-07-02T07:48:09;15.93;;;6.63;;
29662;SDS011;16578;53.266;7.920;2023-07-02T07:50:35;12.35;;;5.75;;
29662;SDS011;16578;53.266;7.920;2023-07-02T07:53:00;11.65;;;5.70;;
29662;SDS011;16578;53.266;7.920;2023-07-02T07:55:26;12.60;;;6.32;;
29662;SDS011;16578;53.266;7.920;2023-07-02T07:57:51;15.55;;;6.18;;
29662;SDS011;16578;53.266;7.920;2023-07-02T08:00:17;11.98;;;6.10;;
29662;SDS011;16578;53.266;7.920;2023-07-02T08:02:43;11.25;;;6.00;;
29662;SDS011;16578;53.266;7.920;2023-07-02T08:05:10;12.75;;;5.72;;
29662;SDS011;16578;53.266;7.920;2023-07-02T08:07:35;11.65;;;5.78;;
29662;SDS011;16578;53.266;7.920;2023-07-02T08:10:01;9.05;;;5.00;;
29662;SDS011;16578;53.266;7.920;2023-07-02T08:12:30;9.90;;;5.60;;
29662;SDS011;16578;53.266;7.920;2023-07-02T08:14:56;12.15;;;5.15;;
29662;SDS011;16578;53.266;7.920;2023-07-02T08:17:22;15.75;;;6.00;;
29662;SDS011;16578;53.266;7.920;2023-07-02T08:19:47;12.85;;;6.25;;
29662;SDS011;16578;53.266;7.920;2023-07-02T08:22:13;11.55;;;5.47;;
29662;SDS011;16578;53.266;7.920;2023-07-02T08:24:38;11.32;;;5.60;;
29662;SDS011;16578;53.266;7.920;2023-07-02T08:27:04;11.43;;;5.47;;
29662;SDS011;16578;53.266;7.920;2023-07-02T08:29:30;15.13;;;5.55;;
29662;SDS011;16578;53.266;7.920;2023-07-02T08:31:56;13.88;;;5.40;;
29662;SDS011;16578;53.266;7.920;2023-07-02T08:34:22;8.88;;;4.47;;
29662;SDS011;16578;53.266;7.920;2023-07-02T08:36:47;7.70;;;4.15;;
29662;SDS011;16578;53.266;7.920;2023-07-02T08:39:13;7.47;;;3.63;;
29662;SDS011;16578;53.266;7.920;2023-07-02T08:41:45;9.48;;;4.15;;
29662;SDS011;16578;53.266;7.920;2023-07-02T08:44:12;9.70;;;4.10;;
29662;SDS011;16578;53.266;7.920;2023-07-02T08:46:38;7.75;;;3.50;;
29662;SDS011;16578;53.266;7.920;2023-07-02T08:49:06;10.10;;;3.60;;
29662;SDS011;16578;53.266;7.920;2023-07-02T08:51:31;9.50;;;3.92;;
29662;SDS011;16578;53.266;7.920;2023-07-02T08:53:57;8.82;;;3.65;;
29662;SDS011;16578;53.266;7.920;2023-07-02T08:56:22;8.05;;;3.60;;
29662;SDS011;16578;53.266;7.920;2023-07-02T08:58:48;5.88;;;2.85;;
29662;SDS011;16578;53.266;7.920;2023-07-02T09:01:14;7.65;;;2.72;;
29662;SDS011;16578;53.266;7.920;2023-07-02T09:03:40;6.13;;;2.90;;
29662;SDS011;16578;53.266;7.920;2023-07-02T09:06:09;7.28;;;3.13;;
29662;SDS011;16578;53.266;7.920;2023-07-02T09:08:36;4.40;;;2.63;;
29662;SDS011;16578;53.266;7.920;2023-07-02T09:18:57;7.60;;;2.78;;
29662;SDS011;16578;53.266;7.920;2023-07-02T09:21:25;4.45;;;2.15;;
29662;SDS011;16578;53.266;7.920;2023-07-02T09:23:52;8.70;;;2.80;;
29662;SDS011;16578;53.266;7.920;2023-07-02T09:26:21;5.82;;;2.15;;
29662;SDS011;16578;53.266;7.920;2023-07-02T09:28:47;13.25;;;2.50;;
29662;SDS011;16578;53.266;7.920;2023-07-02T09:31:12;5.43;;;2.75;;
29662;SDS011;16578;53.266;7.920;2023-07-02T09:33:38;6.35;;;3.15;;
29662;SDS011;16578;53.266;7.920;2023-07-02T09:36:04;5.97;;;2.40;;
29662;SDS011;16578;53.266;7.920;2023-07-02T09:38:30;7.68;;;3.28;;
29662;SDS011;16578;53.266;7.920;2023-07-02T09:40:55;5.20;;;2.70;;
29662;SDS011;16578;53.266;7.920;2023-07-02T09:43:22;5.30;;;2.45;;
29662;SDS011;16578;53.266;7.920;2023-07-02T09:45:53;5.38;;;2.75;;
29662;SDS011;16578;53.266;7.920;2023-07-02T09:48:22;8.25;;;3.13;;
29662;SDS011;16578;53.266;7.920;2023-07-02T09:50:50;5.32;;;2.45;;
29662;SDS011;16578;53.266;7.920;2023-07-02T09:53:17;7.78;;;3.10;;
29662;SDS011;16578;53.266;7.920;2023-07-02T09:55:42;7.75;;;2.83;;
29662;SDS011;16578;53.266;7.920;2023-07-02T09:58:09;6.60;;;2.80;;
29662;SDS011;16578;53.266;7.920;2023-07-02T10:00:35;5.47;;;2.63;;
29662;SDS011;16578;53.266;7.920;2023-07-02T10:03:01;8.75;;;3.25;;
29662;SDS011;16578;53.266;7.920;2023-07-02T10:05:30;5.28;;;3.15;;
29662;SDS011;16578;53.266;7.920;2023-07-02T10:07:57;8.13;;;3.05;;
29662;SDS011;16578;53.266;7.920;2023-07-02T10:10:36;8.73;;;3.75;;
29662;SDS011;16578;53.266;7.920;2023-07-02T10:13:01;6.10;;;3.17;;
29662;SDS011;16578;53.266;7.920;2023-07-02T10:15:27;10.27;;;3.35;;
29662;SDS011;16578;53.266;7.920;2023-07-02T10:17:54;8.00;;;3.22;;
29662;SDS011;16578;53.266;7.920;2023-07-02T10:20:30;6.82;;;3.25;;
29662;SDS011;16578;53.266;7.920;2023-07-02T10:22:58;8.23;;;3.90;;
29662;SDS011;16578;53.266;7.920;2023-07-02T10:25:27;12.73;;;4.25;;
29662;SDS011;16578;53.266;7.920;2023-07-02T10:27:54;7.70;;;3.65;;
29662;SDS011;16578;53.266;7.920;2023-07-02T10:30:30;10.82;;;3.80;;
29662;SDS011;16578;53.266;7.920;2023-07-02T10:33:33;9.57;;;3.47;;
29662;SDS011;16578;53.266;7.920;2023-07-02T10:35:51;8.90;;;3.70;;
29662;SDS011;16578;53.266;7.920;2023-07-02T10:40:55;8.43;;;3.38;;
29662;SDS011;16578;53.266;7.920;2023-07-02T10:43:25;12.90;;;4.55;;
29662;SDS011;16578;53.266;7.920;2023-07-02T10:45:55;6.85;;;3.78;;
29662;SDS011;16578;53.266;7.920;2023-07-02T10:48:21;9.27;;;3.55;;
29662;SDS011;16578;53.266;7.920;2023-07-02T10:50:46;10.00;;;3.67;;
29662;SDS011;16578;53.266;7.920;2023-07-02T10:53:15;10.77;;;3.65;;
29662;SDS011;16578;53.266;7.920;2023-07-02T10:55:41;11.82;;;4.35;;
29662;SDS011;16578;53.266;7.920;2023-07-02T10:58:08;8.02;;;4.25;;
29662;SDS011;16578;53.266;7.920;2023-07-02T11:00:48;9.82;;;3.42;;
29662;SDS011;16578;53.266;7.920;2023-07-02T11:03:22;10.88;;;3.72;;
29662;SDS011;16578;53.266;7.920;2023-07-02T11:05:49;8.70;;;3.30;;
29662;SDS011;16578;53.266;7.920;2023-07-02T11:08:15;7.57;;;3.63;;
29662;SDS011;16578;53.266;7.920;2023-07-02T11:10:42;8.15;;;3.95;;
29662;SDS011;16578;53.266;7.920;2023-07-02T11:13:14;9.65;;;3.50;;
29662;SDS011;16578;53.266;7.920;2023-07-02T11:15:41;9.23;;;3.20;;
29662;SDS011;16578;53.266;7.920;2023-07-02T11:18:11;7.78;;;3.70;;
29662;SDS011;16578;53.266;7.920;2023-07-02T11:20:41;5.82;;;3.05;;
29662;SDS011;16578;53.266;7.920;2023-07-02T11:23:24;8.38;;;3.72;;
29662;SDS011;16578;53.266;7.920;2023-07-02T11:25:59;8.10;;;3.03;;
29662;SDS011;16578;53.266;7.920;2023-07-02T11:28:26;6.10;;;2.88;;
29662;SDS011;16578;53.266;7.920;2023-07-02T11:30:53;8.43;;;2.58;;
29662;SDS011;16578;53.266;7.920;2023-07-02T11:33:19;8.48;;;3.40;;
29662;SDS011;16578;53.266;7.920;2023-07-02T11:35:46;6.22;;;2.92;;
29662;SDS011;16578;53.266;7.920;2023-07-02T11:38:11;8.38;;;2.70;;
29662;SDS011;16578;53.266;7.920;2023-07-02T11:40:37;7.95;;;2.88;;
29662;SDS011;16578;53.266;7.920;2023-07-02T11:43:03;7.53;;;3.10;;
29662;SDS011;16578;53.266;7.920;2023-07-02T11:45:30;5.28;;;2.45;;
29662;SDS011;16578;53.266;7.920;2023-07-02T11:47:56;3.63;;;2.33;;
29662;SDS011;16578;53.266;7.920;2023-07-02T11:50:21;5.90;;;2.30;;
29662;SDS011;16578;53.266;7.920;2023-07-02T11:52:47;4.78;;;1.95;;
29662;SDS011;16578;53.266;7.920;2023-07-02T11:55:12;6.97;;;2.95;;
29662;SDS011;16578;53.266;7.920;2023-07-02T11:57:38;5.65;;;2.65;;
29662;SDS011;16578;53.266;7.920;2023-07-02T12:00:04;6.78;;;2.78;;
29662;SDS011;16578;53.266;7.920;2023-07-02T12:02:30;8.55;;;3.05;;
29662;SDS011;16578;53.266;7.920;2023-07-02T12:04:55;10.50;;;3.55;;
29662;SDS011;16578;53.266;7.920;2023-07-02T12:07:21;8.10;;;3.58;;
29662;SDS011;16578;53.266;7.920;2023-07-02T12:09:46;7.18;;;2.97;;
29662;SDS011;16578;53.266;7.920;2023-07-02T12:12:12;7.50;;;2.78;;
29662;SDS011;16578;53.266;7.920;2023-07-02T12:14:38;6.30;;;2.88;;
29662;SDS011;16578;53.266;7.920;2023-07-02T12:17:06;5.22;;;2.70;;
29662;SDS011;16578;53.266;7.920;2023-07-02T12:19:32;6.90;;;3.20;;
29662;SDS011;16578;53.266;7.920;2023-07-02T12:21:57;10.52;;;2.90;;
29662;SDS011;16578;53.266;7.920;2023-07-02T12:24:23;7.03;;;2.95;;
29662;SDS011;16578;53.266;7.920;2023-07-02T12:26:48;4.22;;;2.80;;
29662;SDS011;16578;53.266;7.920;2023-07-02T12:29:14;6.88;;;3.35;;
29662;SDS011;16578;53.266;7.920;2023-07-02T12:31:40;7.28;;;3.25;;
29662;SDS011;16578;53.266;7.920;2023-07-02T12:34:05;5.43;;;2.83;;
29662;SDS011;16578;53.266;7.920;2023-07-02T12:36:31;5.80;;;2.92;;
29662;SDS011;16578;53.266;7.920;2023-07-02T12:38:56;9.13;;;3.10;;
29662;SDS011;16578;53.266;7.920;2023-07-02T12:41:22;6.25;;;3.17;;
29662;SDS011;16578;53.266;7.920;2023-07-02T12:43:47;4.88;;;2.80;;
29662;SDS011;16578;53.266;7.920;2023-07-02T12:46:13;6.03;;;3.25;;
29662;SDS011;16578;53.266;7.920;2023-07-02T12:48:38;7.95;;;2.90;;
29662;SDS011;16578;53.266;7.920;2023-07-02T12:51:04;7.90;;;2.85;;
29662;SDS011;16578;53.266;7.920;2023-07-02T12:53:29;5.82;;;3.20;;
29662;SDS011;16578;53.266;7.920;2023-07-02T12:55:55;8.52;;;3.15;;
29662;SDS011;16578;53.266;7.920;2023-07-02T12:58:21;7.80;;;3.10;;
29662;SDS011;16578;53.266;7.920;2023-07-02T13:00:47;10.20;;;3.28;;
29662;SDS011;16578;53.266;7.920;2023-07-02T13:03:13;5.18;;;3.17;;
29662;SDS011;16578;53.266;7.920;2023-07-02T13:05:39;5.75;;;3.00;;
29662;SDS011;16578;53.266;7.920;2023-07-02T13:08:05;11.10;;;3.17;;
29662;SDS011;16578;53.266;7.920;2023-07-02T13:10:31;7.38;;;3.28;;
29662;SDS011;16578;53.266;7.920;2023-07-02T13:12:58;7.35;;;3.22;;
29662;SDS011;16578;53.266;7.920;2023-07-02T13:15:24;7.18;;;3.10;;
29662;SDS011;16578;53.266;7.920;2023-07-02T13:17:50;6.35;;;2.95;;
29662;SDS011;16578;53.266;7.920;2023-07-02T13:20:16;6.30;;;3.40;;
29662;SDS011;16578;53.266;7.920;2023-07-02T13:22:41;6.85;;;3.22;;
29662;SDS011;16578;53.266;7.920;2023-07-02T13:25:07;6.70;;;3.40;;
29662;SDS011;16578;53.266;7.920;2023-07-02T13:27:33;6.60;;;2.75;;
29662;SDS011;16578;53.266;7.920;2023-07-02T13:29:58;10.02;;;3.33;;
29662;SDS011;16578;53.266;7.920;2023-07-02T13:32:24;11.60;;;3.47;;
29662;SDS011;16578;53.266;7.920;2023-07-02T13:34:50;6.38;;;2.90;;
29662;SDS011;16578;53.266;7.920;2023-07-02T13:37:15;4.25;;;2.70;;
29662;SDS011;16578;53.266;7.920;2023-07-02T13:39:44;6.28;;;2.70;;
29662;SDS011;16578;53.266;7.920;2023-07-02T13:42:10;8.45;;;3.05;;
29662;SDS011;16578;53.266;7.920;2023-07-02T13:44:35;8.82;;;2.97;;
29662;SDS011;16578;53.266;7.920;2023-07-02T13:47:01;4.47;;;2.28;;
29662;SDS011;16578;53.266;7.920;2023-07-02T13:49:26;6.72;;;2.38;;
29662;SDS011;16578;53.266;7.920;2023-07-02T13:51:52;7.28;;;2.63;;
29662;SDS011;16578;53.266;7.920;2023-07-02T13:54:18;5.90;;;2.42;;
29662;SDS011;16578;53.266;7.920;2023-07-02T13:56:44;5.43;;;2.80;;
29662;SDS011;16578;53.266;7.920;2023-07-02T13:59:11;5.88;;;3.03;;
29662;SDS011;16578;53.266;7.920;2023-07-02T14:01:36;6.40;;;2.85;;
29662;SDS011;16578;53.266;7.920;2023-07-02T14:04:02;5.88;;;2.90;;
29662;SDS011;16578;53.266;7.920;2023-07-02T14:06:28;6.75;;;2.67;;
29662;SDS011;16578;53.266;7.920;2023-07-02T14:08:54;6.57;;;2.92;;
29662;SDS011;16578;53.266;7.920;2023-07-02T14:11:20;5.15;;;2.78;;
29662;SDS011;16578;53.266;7.920;2023-07-02T14:13:47;5.03;;;2.80;;
29662;SDS011;16578;53.266;7.920;2023-07-02T14:16:13;6.32;;;3.20;;
29662;SDS011;16578;53.266;7.920;2023-07-02T14:18:38;4.32;;;2.40;;
29662;SDS011;16578;53.266;7.920;2023-07-02T14:21:04;5.25;;;3.15;;
29662;SDS011;16578;53.266;7.920;2023-07-02T14:23:29;13.25;;;3.40;;
29662;SDS011;16578;53.266;7.920;2023-07-02T14:25:55;6.85;;;3.70;;
29662;SDS011;16578;53.266;7.920;2023-07-02T14:28:20;12.60;;;3.70;;
29662;SDS011;16578;53.266;7.920;2023-07-02T14:30:47;6.93;;;3.15;;
29662;SDS011;16578;53.266;7.920;2023-07-02T14:33:13;7.07;;;3.03;;
29662;SDS011;16578;53.266;7.920;2023-07-02T14:35:39;6.90;;;2.92;;
29662;SDS011;16578;53.266;7.920;2023-07-02T14:38:05;5.90;;;3.03;;
29662;SDS011;16578;53.266;7.920;2023-07-02T14:40:31;5.18;;;3.10;;
29662;SDS011;16578;53.266;7.920;2023-07-02T14:42:57;7.32;;;3.42;;
29662;SDS011;16578;53.266;7.920;2023-07-02T14:45:23;8.00;;;3.70;;
29662;SDS011;16578;53.266;7.920;2023-07-02T14:47:49;10.77;;;3.75;;
29662;SDS011;16578;53.266;7.920;2023-07-02T14:50:14;5.47;;;3.40;;